createdAt,value
2022-09-06T00:02:20.164Z,100393.81
2022-09-06T00:04:48.858Z,100392.94
2022-09-06T00:07:16.487Z,100392.06
2022-09-06T00:09:43.810Z,100390.44
2022-09-06T00:12:11.408Z,100391.75
2022-09-06T00:14:38.741Z,100395.22
2022-09-06T00:17:06.067Z,100388.25
2022-09-06T00:19:33.734Z,100387.53
2022-09-06T00:22:01.146Z,100388.28
2022-09-06T00:24:28.483Z,100389.56
2022-09-06T00:26:56.089Z,100392.28
2022-09-06T00:29:23.425Z,100397.50
2022-09-06T00:31:50.805Z,100399.50
2022-09-06T00:34:18.418Z,100400.72
2022-09-06T00:36:45.767Z,100404.34
2022-09-06T00:39:13.124Z,100404.25
2022-09-06T00:41:40.751Z,100400.97
2022-09-06T00:44:08.115Z,100394.97
2022-09-06T00:46:36.751Z,100396.63
2022-09-06T00:49:07.582Z,100401.53
2022-09-06T00:51:35.654Z,100399.84
2022-09-06T00:54:07.908Z,100399.19
2022-09-06T00:56:39.056Z,100393.66
2022-09-06T00:59:06.916Z,100396.53
2022-09-06T01:01:34.655Z,100398.47
2022-09-06T01:04:02.619Z,100396.09
2022-09-06T01:06:37.433Z,100395.25
2022-09-06T01:09:23.676Z,100397.09
2022-09-06T01:12:13.675Z,100399.91
2022-09-06T01:15:03.635Z,100393.75
2022-09-06T01:17:49.008Z,100387.56
2022-09-06T01:20:32.950Z,100395.56
2022-09-06T01:23:21.998Z,100398.47
2022-09-06T01:26:10.935Z,100394.97
2022-09-06T01:28:45.378Z,100388.91
2022-09-06T01:31:35.564Z,100384.59
2022-09-06T01:34:05.908Z,100387.47
2022-09-06T01:37:06.257Z,100390.81
2022-09-06T01:39:34.194Z,100386.16
2022-09-06T01:42:07.631Z,100390.25
2022-09-06T01:44:35.971Z,100392.34
2022-09-06T01:47:21.547Z,100391.47
2022-09-06T01:50:05.950Z,100390.66
2022-09-06T01:52:36.613Z,100389.03
2022-09-06T01:55:31.471Z,100384.06
2022-09-06T01:58:35.210Z,100381.56
2022-09-06T02:01:35.519Z,100384.28
2022-09-06T02:04:15.288Z,100380.84
2022-09-06T02:06:46.669Z,100386.91
2022-09-06T02:09:20.720Z,100384.66
2022-09-06T02:11:57.960Z,100386.50
2022-09-06T02:14:36.278Z,100382.91
2022-09-06T02:17:05.800Z,100374.28
2022-09-06T02:19:40.640Z,100380.63
2022-09-06T02:22:10.448Z,100370.06
2022-09-06T02:24:40.670Z,100372.19
2022-09-06T02:27:08.342Z,100365.91
2022-09-06T02:29:35.818Z,100368.72
2022-09-06T02:32:22.034Z,100365.97
2022-09-06T02:34:54.480Z,100370.28
2022-09-06T02:37:24.109Z,100372.19
2022-09-06T02:39:51.869Z,100371.38
2022-09-06T02:42:19.287Z,100369.69
2022-09-06T02:44:46.924Z,100372.59
2022-09-06T02:47:14.290Z,100367.25
2022-09-06T02:49:41.603Z,100370.09
2022-09-06T02:52:09.265Z,100376.34
2022-09-06T02:54:36.596Z,100367.53
2022-09-06T02:57:04.025Z,100373.63
2022-09-06T02:59:32.382Z,100362.50
2022-09-06T03:02:00.147Z,100359.63
2022-09-06T03:04:27.834Z,100361.19
2022-09-06T03:06:56.434Z,100363.34
2022-09-06T03:09:24.749Z,100361.47
2022-09-06T03:11:52.124Z,100359.81
2022-09-06T03:14:19.992Z,100359.09
2022-09-06T03:16:47.409Z,100360.81
2022-09-06T03:19:14.790Z,100351.38
2022-09-06T03:21:42.372Z,100355.06
2022-09-06T03:24:09.726Z,100356.75
2022-09-06T03:26:37.081Z,100359.28
2022-09-06T03:29:04.650Z,100357.59
2022-09-06T03:31:32.207Z,100356.75
2022-09-06T03:33:59.998Z,100357.66
2022-09-06T03:36:27.801Z,100361.16
2022-09-06T03:38:55.289Z,100358.09
2022-09-06T03:41:22.637Z,100360.41
2022-09-06T03:43:50.225Z,100362.25
2022-09-06T03:46:17.866Z,100365.81
2022-09-06T03:48:45.271Z,100364.91
2022-09-06T03:51:12.891Z,100362.31
2022-09-06T03:53:40.299Z,100364.06
2022-09-06T03:56:07.623Z,100372.06
2022-09-06T03:58:35.223Z,100376.59
2022-09-06T04:01:10.432Z,100370.28
2022-09-06T04:03:38.883Z,100371.12
2022-09-06T04:06:07.070Z,100377.56
2022-09-06T04:08:35.519Z,100372.22
2022-09-06T04:11:04.202Z,100365.38
2022-09-06T04:13:32.823Z,100372.34
2022-09-06T04:16:00.386Z,100367.94
2022-09-06T04:18:28.367Z,100368.19
2022-09-06T04:20:56.468Z,100368.00
2022-09-06T04:23:25.416Z,100375.03
2022-09-06T04:25:54.522Z,100371.72
2022-09-06T04:28:22.832Z,100377.62
2022-09-06T04:31:03.343Z,100385.41
2022-09-06T04:33:33.470Z,100382.28
2022-09-06T04:36:02.541Z,100376.13
2022-09-06T04:38:31.082Z,100382.06
2022-09-06T04:40:58.671Z,100376.19
2022-09-06T04:43:26.006Z,100375.22
2022-09-06T04:45:53.396Z,100373.47
2022-09-06T04:48:21.352Z,100370.72
2022-09-06T04:50:49.005Z,100369.72
2022-09-06T04:53:16.349Z,100365.56
2022-09-06T04:55:44.003Z,100370.91
2022-09-06T04:58:11.341Z,100368.28
2022-09-06T05:00:39.724Z,100367.47
2022-09-06T05:03:07.338Z,100354.00
2022-09-06T05:05:34.698Z,100359.22
2022-09-06T05:08:02.177Z,100359.28
2022-09-06T05:10:29.819Z,100359.97
2022-09-06T05:12:57.142Z,100362.66
2022-09-06T05:15:24.491Z,100370.19
2022-09-06T05:17:52.137Z,100366.25
2022-09-06T05:20:19.516Z,100370.41
2022-09-06T05:22:54.372Z,100373.59
2022-09-06T05:25:22.024Z,100366.88
2022-09-06T05:27:49.429Z,100374.38
2022-09-06T05:30:18.087Z,100373.03
2022-09-06T05:32:45.963Z,100373.34
2022-09-06T05:35:13.328Z,100371.03
2022-09-06T05:37:40.926Z,100360.62
2022-09-06T05:40:17.193Z,100358.47
2022-09-06T05:42:44.576Z,100358.53
2022-09-06T05:45:12.187Z,100356.22
2022-09-06T05:47:39.576Z,100365.59
2022-09-06T05:50:07.908Z,100376.53
2022-09-06T05:52:36.562Z,100367.34
2022-09-06T05:55:04.560Z,100362.16
2022-09-06T05:57:31.981Z,100359.25
2022-09-06T05:59:59.315Z,100359.56
2022-09-06T06:02:26.982Z,100365.19
2022-09-06T06:04:54.660Z,100364.97
2022-09-06T06:07:22.068Z,100371.34
2022-09-06T06:09:49.467Z,100366.25
2022-09-06T06:12:17.084Z,100358.56
2022-09-06T06:14:44.408Z,100360.13
2022-09-06T06:17:11.743Z,100357.47
2022-09-06T06:19:40.122Z,100354.69
2022-09-06T06:22:07.430Z,100360.62
2022-09-06T06:24:35.126Z,100355.87
2022-09-06T06:27:02.795Z,100361.72
2022-09-06T06:29:30.137Z,100363.03
2022-09-06T06:31:57.499Z,100366.66
2022-09-06T06:34:25.085Z,100364.97
2022-09-06T06:36:52.856Z,100362.47
2022-09-06T06:39:20.255Z,100358.38
2022-09-06T06:41:49.688Z,100361.66
2022-09-06T06:44:21.180Z,100365.72
2022-09-06T06:46:48.937Z,100367.00
2022-09-06T06:49:16.496Z,100364.97
2022-09-06T06:51:43.851Z,100378.63
2022-09-06T06:54:11.508Z,100367.28
2022-09-06T06:56:44.803Z,100374.41
2022-09-06T06:59:12.640Z,100377.84
2022-09-06T07:01:40.307Z,100378.12
2022-09-06T07:04:08.696Z,100378.16
2022-09-06T07:12:25.691Z,100378.12
2022-09-06T07:14:53.021Z,100384.62
2022-09-06T07:17:20.336Z,100382.28
2022-09-06T07:22:35.242Z,100386.25
2022-09-06T07:25:04.612Z,100386.25
2022-09-06T07:27:48.039Z,100389.16
2022-09-06T07:30:16.834Z,100393.31
2022-09-06T07:32:44.180Z,100390.56
2022-09-06T07:35:14.301Z,100388.66
2022-09-06T07:37:41.923Z,100391.25
2022-09-06T07:40:10.205Z,100379.97
2022-09-06T07:42:37.709Z,100388.00
2022-09-06T07:45:05.646Z,100379.22
2022-09-06T07:53:11.897Z,100385.13
2022-09-06T07:55:43.437Z,100389.50
2022-09-06T07:58:11.074Z,100389.34
2022-09-06T08:00:41.113Z,100387.62
2022-09-06T08:03:09.351Z,100389.66
2022-09-06T08:11:13.741Z,100383.50
2022-09-06T08:13:42.266Z,100385.75
2022-09-06T08:16:11.778Z,100385.03
2022-09-06T08:18:39.596Z,100383.94
2022-09-06T08:21:12.959Z,100374.78
2022-09-06T08:23:52.815Z,100380.13
2022-09-06T08:26:22.371Z,100376.78
2022-09-06T08:29:00.623Z,100370.69
2022-09-06T08:31:29.633Z,100371.59
2022-09-06T08:33:58.532Z,100368.38
2022-09-06T08:36:31.743Z,100365.00
2022-09-06T08:39:00.871Z,100369.06
2022-09-06T08:41:34.323Z,100371.78
2022-09-06T08:47:01.447Z,100363.34
2022-09-06T08:49:34.407Z,100362.34
2022-09-06T08:52:14.132Z,100362.94
2022-09-06T08:54:52.951Z,100352.91
2022-09-06T08:57:45.750Z,100359.28
2022-09-06T09:00:13.841Z,100356.72
2022-09-06T09:02:49.062Z,100358.81
2022-09-06T09:05:31.028Z,100356.63
2022-09-06T09:08:16.385Z,100354.94
2022-09-06T09:10:47.545Z,100347.38
2022-09-06T09:13:32.961Z,100358.84
2022-09-06T09:16:00.669Z,100352.03
2022-09-06T09:18:38.377Z,100339.09
2022-09-06T09:21:06.213Z,100339.53
2022-09-06T09:23:33.562Z,100333.84
2022-09-06T09:26:04.970Z,100334.88
2022-09-06T09:28:32.639Z,100328.37
2022-09-06T09:31:00.062Z,100335.81
2022-09-06T09:33:36.872Z,100321.59
2022-09-06T09:36:14.019Z,100318.91
2022-09-06T09:38:44.256Z,100313.50
2022-09-06T09:41:27.398Z,100321.03
2022-09-06T09:44:01.079Z,100313.78
2022-09-06T09:46:36.526Z,100308.63
2022-09-06T09:49:10.429Z,100309.56
2022-09-06T09:51:42.276Z,100306.25
2022-09-06T09:54:12.746Z,100304.78
2022-09-06T09:56:47.785Z,100302.84
2022-09-06T09:59:27.180Z,100292.56
2022-09-06T10:02:01.416Z,100289.66
2022-09-06T10:04:47.218Z,100296.16
2022-09-06T10:07:23.152Z,100283.16
2022-09-06T10:10:01.964Z,100277.59
2022-09-06T10:12:35.536Z,100272.56
2022-09-06T10:15:40.166Z,100265.44
2022-09-06T10:18:17.701Z,100268.88
2022-09-06T10:20:51.875Z,100261.72
2022-09-06T10:27:08.280Z,100256.69
2022-09-06T10:29:44.679Z,100250.69
2022-09-06T10:32:42.052Z,100260.34
2022-09-06T10:35:17.164Z,100254.84
2022-09-06T10:37:48.573Z,100251.09
2022-09-06T10:40:33.579Z,100246.59
2022-09-06T10:43:03.608Z,100237.59
2022-09-06T10:45:50.027Z,100235.47
2022-09-06T10:48:30.621Z,100238.69
2022-09-06T10:51:21.889Z,100237.59
2022-09-06T10:54:01.759Z,100237.78
2022-09-06T10:56:31.801Z,100239.50
2022-09-06T10:59:37.386Z,100238.25
2022-09-06T11:02:24.516Z,100242.78
2022-09-06T11:10:49.872Z,100242.53
2022-09-06T11:13:19.640Z,100235.47
2022-09-06T11:15:52.241Z,100241.34
2022-09-06T11:18:29.787Z,100241.97
2022-09-06T11:21:19.365Z,100230.00
2022-09-06T11:24:22.460Z,100226.84
2022-09-06T11:27:00.842Z,100226.31
2022-09-06T11:29:30.062Z,100214.56
2022-09-06T11:32:16.681Z,100210.44
2022-09-06T11:34:55.422Z,100210.44
2022-09-06T11:37:28.383Z,100215.00
2022-09-06T11:42:53.623Z,100204.59
2022-09-06T11:45:21.754Z,100209.06
2022-09-06T11:47:53.060Z,100199.97
2022-09-06T11:50:20.543Z,100195.09
2022-09-06T11:52:59.738Z,100191.22
2022-09-06T11:55:32.559Z,100198.19
2022-09-06T11:58:02.439Z,100185.53
2022-09-06T12:00:30.141Z,100176.66
2022-09-06T12:06:24.870Z,100175.87
2022-09-06T12:08:53.861Z,100163.59
2022-09-06T12:11:41.792Z,100166.53
2022-09-06T12:14:41.223Z,100174.97
2022-09-06T12:17:09.015Z,100160.16
2022-09-06T12:19:48.795Z,100163.59
2022-09-06T12:22:32.778Z,100160.31
2022-09-06T12:25:40.495Z,100157.28
2022-09-06T12:28:19.421Z,100148.63
2022-09-06T12:30:48.082Z,100139.94
2022-09-06T12:33:24.154Z,100137.88
2022-09-06T12:38:25.124Z,100130.28
2022-09-06T12:40:58.335Z,100125.28
2022-09-06T12:43:26.250Z,100127.47
2022-09-06T12:45:53.899Z,100122.78
2022-09-06T12:48:30.231Z,100117.19
2022-09-06T12:51:13.518Z,100111.56
2022-09-06T12:53:40.928Z,100125.00
2022-09-06T12:56:12.379Z,100106.69
2022-09-06T12:58:39.906Z,100109.47
2022-09-06T13:01:24.471Z,100098.28
2022-09-06T13:04:22.182Z,100094.37
2022-09-06T13:06:49.732Z,100095.47
2022-09-06T13:09:19.176Z,100090.69
2022-09-06T13:11:51.023Z,100089.88
2022-09-06T13:14:26.274Z,100087.91
2022-09-06T13:16:57.068Z,100085.63
2022-09-06T13:19:39.182Z,100079.75
2022-09-06T13:22:07.575Z,100083.25
2022-09-06T13:24:35.343Z,100080.03
2022-09-06T13:27:30.664Z,100074.91
2022-09-06T13:30:42.082Z,100072.34
2022-09-06T13:33:23.478Z,100071.72
2022-09-06T13:36:11.117Z,100068.66
2022-09-06T13:38:43.759Z,100062.94
2022-09-06T13:41:26.319Z,100053.53
2022-09-06T13:44:04.381Z,100041.16
2022-09-06T13:46:33.244Z,100040.22
2022-09-06T13:49:00.689Z,100047.25
2022-09-06T13:51:28.322Z,100037.03
2022-09-06T13:54:10.576Z,100045.00
2022-09-06T13:56:39.219Z,100035.12
2022-09-06T13:59:07.672Z,100040.41
2022-09-06T14:01:35.166Z,100036.97
2022-09-06T14:04:03.626Z,100035.53
2022-09-06T14:06:36.095Z,100041.34
2022-09-06T14:09:08.568Z,100032.22
2022-09-06T14:11:36.849Z,100031.34
2022-09-06T14:14:05.100Z,100025.34
2022-09-06T14:16:33.771Z,100020.06
2022-09-06T14:19:01.369Z,100028.19
2022-09-06T14:21:28.975Z,100025.12
2022-09-06T14:23:58.830Z,100016.59
2022-09-06T14:26:28.976Z,100026.06
2022-09-06T14:28:56.655Z,100021.69
2022-09-06T14:31:26.195Z,100018.22
2022-09-06T14:33:54.794Z,100023.97
2022-09-06T14:36:48.685Z,100017.50
2022-09-06T14:39:16.039Z,100015.59
2022-09-06T14:41:43.742Z,100016.28
2022-09-06T14:44:11.398Z,100016.56
2022-09-06T14:46:38.808Z,100016.50
2022-09-06T14:49:09.962Z,100010.41
2022-09-06T14:51:38.503Z,100016.28
2022-09-06T14:54:13.819Z,100012.41
2022-09-06T14:56:44.136Z,100020.66
2022-09-06T14:59:11.987Z,100009.38
2022-09-06T15:01:39.802Z,100022.19
2022-09-06T15:04:09.192Z,100030.75
2022-09-06T15:06:39.192Z,100042.47
2022-09-06T15:09:07.919Z,100050.28
2022-09-06T15:11:36.721Z,100058.81
2022-09-06T15:14:07.769Z,100079.69
2022-09-06T15:16:35.898Z,100096.78
2022-09-06T15:19:03.743Z,100112.97
2022-09-06T15:21:32.099Z,100121.09
2022-09-06T15:24:00.333Z,100139.13
2022-09-06T15:26:28.231Z,100128.94
2022-09-06T15:28:58.539Z,100121.56
2022-09-06T15:31:25.923Z,100089.25
2022-09-06T15:33:53.854Z,100066.41
2022-09-06T15:36:21.906Z,100048.03
2022-09-06T15:38:50.724Z,100044.66
2022-09-06T15:41:20.882Z,100050.41
2022-09-06T15:43:50.454Z,100047.66
2022-09-06T15:46:21.185Z,100044.37
2022-09-06T15:48:51.015Z,100049.78
2022-09-06T15:51:20.424Z,100041.50
2022-09-06T15:53:48.035Z,100033.41
2022-09-06T15:56:17.137Z,100032.94
2022-09-06T15:58:47.907Z,100042.22
2022-09-06T16:01:17.653Z,100042.72
2022-09-06T16:03:46.404Z,100044.63
2022-09-06T16:06:25.869Z,100045.53
2022-09-06T16:09:03.541Z,100047.44
2022-09-06T16:11:32.730Z,100056.12
2022-09-06T16:14:00.455Z,100066.75
2022-09-06T16:16:28.574Z,100062.66
2022-09-06T16:19:16.866Z,100057.16
2022-09-06T16:21:44.478Z,100069.34
2022-09-06T16:24:13.536Z,100075.53
2022-09-06T16:26:43.311Z,100081.69
2022-09-06T16:29:12.244Z,100084.44
2022-09-06T16:31:40.746Z,100080.44
2022-09-06T16:34:11.802Z,100078.13
2022-09-06T16:36:39.931Z,100074.94
2022-09-06T16:39:07.840Z,100063.28
2022-09-06T16:41:41.112Z,100064.06
2022-09-06T16:44:10.282Z,100069.22
2022-09-06T16:46:40.016Z,100060.91
2022-09-06T16:49:07.632Z,100060.03
2022-09-06T16:51:35.288Z,100067.00
2022-09-06T16:54:02.791Z,100061.66
2022-09-06T16:56:33.415Z,100060.59
2022-09-06T16:59:02.861Z,100063.56
2022-09-06T17:01:31.520Z,100064.56
2022-09-06T17:04:01.693Z,100073.47
2022-09-06T17:06:29.559Z,100071.91
2022-09-06T17:09:00.428Z,100082.91
2022-09-06T17:11:28.578Z,100088.47
2022-09-06T17:13:56.910Z,100095.38
2022-09-06T17:16:43.606Z,100101.16
2022-09-06T17:19:11.587Z,100106.34
2022-09-06T17:21:40.018Z,100101.56
2022-09-06T17:24:08.221Z,100096.00
2022-09-06T17:26:39.135Z,100103.44
2022-09-06T17:29:08.518Z,100106.81
2022-09-06T17:31:36.979Z,100103.38
2022-09-06T17:34:04.769Z,100094.59
2022-09-06T17:36:33.133Z,100089.88
2022-09-06T17:39:08.638Z,100098.03
2022-09-06T17:41:38.855Z,100093.53
2022-09-06T17:44:08.163Z,100097.91
2022-09-06T17:46:35.482Z,100093.53
2022-09-06T17:49:04.681Z,100098.06
2022-09-06T17:51:33.027Z,100097.44
2022-09-06T17:54:00.371Z,100102.13
2022-09-06T17:56:28.999Z,100102.72
2022-09-06T17:58:59.325Z,100094.50
2022-09-06T18:01:29.589Z,100088.22
2022-09-06T18:03:58.525Z,100096.25
2022-09-06T18:06:28.107Z,100098.09
2022-09-06T18:08:58.008Z,100096.00
2022-09-06T18:11:28.039Z,100090.75
2022-09-06T18:13:56.346Z,100082.75
2022-09-06T18:16:24.272Z,100087.53
2022-09-06T18:18:54.491Z,100090.53
2022-09-06T18:21:22.531Z,100086.62
2022-09-06T18:23:49.930Z,100094.97
2022-09-06T18:26:17.769Z,100099.03
2022-09-06T18:28:45.098Z,100106.13
2022-09-06T18:31:14.817Z,100112.22
2022-09-06T18:33:43.010Z,100132.25
2022-09-06T18:36:11.479Z,100127.50
2022-09-06T18:38:39.961Z,100130.94
2022-09-06T18:41:09.019Z,100122.19
2022-09-06T18:43:39.777Z,100127.78
2022-09-06T18:46:15.924Z,100116.59
2022-09-06T18:48:43.702Z,100108.72
2022-09-06T18:51:13.406Z,100103.69
2022-09-06T18:53:44.960Z,100106.28
2022-09-06T18:56:14.077Z,100104.19
2022-09-06T18:58:42.230Z,100101.69
2022-09-06T19:01:19.702Z,100101.41
2022-09-06T19:03:47.615Z,100095.28
2022-09-06T19:06:20.384Z,100103.56
2022-09-06T19:09:13.695Z,100101.69
2022-09-06T19:11:46.904Z,100107.22
2022-09-06T19:14:14.731Z,100109.72
2022-09-06T19:16:42.435Z,100118.47
2022-09-06T19:19:11.651Z,100112.44
2022-09-06T19:21:42.240Z,100116.03
2022-09-06T19:24:11.598Z,100118.03
2022-09-06T19:26:41.907Z,100114.78
2022-09-06T19:29:48.092Z,100118.44
2022-09-06T19:32:15.868Z,100120.38
2022-09-06T19:34:43.240Z,100108.47
2022-09-06T19:37:11.123Z,100107.84
2022-09-06T19:39:38.878Z,100107.19
2022-09-06T19:42:06.403Z,100106.69
2022-09-06T19:44:33.850Z,100099.50
2022-09-06T19:47:03.709Z,100099.50
2022-09-06T19:49:54.346Z,100096.16
2022-09-06T19:52:22.781Z,100088.47
2022-09-06T19:54:50.165Z,100092.94
2022-09-06T19:57:17.517Z,100085.88
2022-09-06T19:59:45.199Z,100085.03
2022-09-06T20:02:13.370Z,100083.81
2022-09-06T20:04:41.558Z,100084.37
2022-09-06T20:07:08.910Z,100075.16
2022-09-06T20:09:36.449Z,100076.84
2022-09-06T20:12:04.804Z,100082.94
2022-09-06T20:14:32.146Z,100082.09
2022-09-06T20:17:29.317Z,100081.72
2022-09-06T20:19:48.725Z,100077.06
2022-09-06T20:22:16.042Z,100072.62
2022-09-06T20:24:43.370Z,100078.00
2022-09-06T20:27:10.949Z,100082.56
2022-09-06T20:29:38.269Z,100081.25
2022-09-06T20:32:05.724Z,100082.25
2022-09-06T20:34:34.247Z,100081.81
2022-09-06T20:37:01.571Z,100087.78
2022-09-06T20:39:29.019Z,100089.66
2022-09-06T20:41:56.648Z,100090.75
2022-09-06T20:44:24.066Z,100079.34
2022-09-06T20:46:51.462Z,100084.84
2022-09-06T20:49:21.432Z,100086.34
2022-09-06T20:51:48.879Z,100091.72
2022-09-06T20:54:16.291Z,100093.75
2022-09-06T20:56:44.184Z,100087.50
2022-09-06T20:59:12.462Z,100084.56
2022-09-06T21:01:42.040Z,100085.84
2022-09-06T21:04:10.975Z,100088.66
2022-09-06T21:06:39.502Z,100084.97
2022-09-06T21:09:13.465Z,100077.97
2022-09-06T21:11:41.760Z,100086.62
2022-09-06T21:14:09.591Z,100083.94
2022-09-06T21:16:37.858Z,100081.75
2022-09-06T21:19:07.187Z,100080.97
2022-09-06T21:21:35.250Z,100077.53
2022-09-06T21:24:04.901Z,100089.66
2022-09-06T21:26:32.968Z,100082.03
2022-09-06T21:29:00.354Z,100077.19
2022-09-06T21:31:33.593Z,100076.84
2022-09-06T21:34:05.568Z,100080.53
2022-09-06T21:36:35.616Z,100072.94
2022-09-06T21:39:05.926Z,100070.69
2022-09-06T21:41:36.326Z,100072.22
2022-09-06T21:44:05.056Z,100065.97
2022-09-06T21:46:37.432Z,100075.44
2022-09-06T21:49:07.897Z,100072.75
2022-09-06T21:51:58.567Z,100063.97
2022-09-06T21:54:26.256Z,100062.16
2022-09-06T21:56:53.593Z,100063.28
2022-09-06T21:59:20.994Z,100057.84
2022-09-06T22:04:16.445Z,100055.44
2022-09-06T22:06:43.769Z,100056.31
2022-09-06T22:09:11.972Z,100063.94
2022-09-06T22:11:42.031Z,100059.06
2022-09-06T22:14:11.664Z,100064.34
2022-09-06T22:16:39.945Z,100055.00
2022-09-06T22:19:09.098Z,100059.62
2022-09-06T22:21:38.506Z,100061.37
2022-09-06T22:24:08.546Z,100061.56
2022-09-06T22:26:37.196Z,100067.41
2022-09-06T22:29:06.210Z,100063.87
2022-09-06T22:31:34.472Z,100060.31
2022-09-06T22:34:02.604Z,100065.00
2022-09-06T22:36:30.058Z,100069.78
2022-09-06T22:41:27.127Z,100069.03
2022-09-06T22:43:54.813Z,100051.47
2022-09-06T22:46:23.069Z,100057.06
2022-09-06T22:48:50.793Z,100045.75
2022-09-06T22:51:18.210Z,100053.56
2022-09-06T22:53:45.578Z,100054.69
2022-09-06T22:56:13.267Z,100051.34
2022-09-06T22:58:40.626Z,100058.50
2022-09-06T23:01:11.247Z,100044.47
2022-09-06T23:03:39.175Z,100048.41
2022-09-06T23:06:06.788Z,100044.09
2022-09-06T23:08:35.979Z,100046.03
2022-09-06T23:11:06.784Z,100046.75
2022-09-06T23:13:34.526Z,100049.72
2022-09-06T23:16:04.066Z,100042.94
2022-09-06T23:18:32.078Z,100048.91
2022-09-06T23:21:13.268Z,100038.59
2022-09-06T23:23:41.574Z,100040.97
2022-09-06T23:26:11.255Z,100040.47
2022-09-06T23:28:38.956Z,100040.78
2022-09-06T23:31:09.144Z,100048.69
2022-09-06T23:33:37.236Z,100050.53
2022-09-06T23:36:06.519Z,100047.94
2022-09-06T23:38:35.765Z,100038.81
2022-09-06T23:41:04.055Z,100039.19
2022-09-06T23:43:31.828Z,100031.34
2022-09-06T23:45:59.453Z,100036.66
2022-09-06T23:48:26.965Z,100043.69
2022-09-06T23:50:54.400Z,100037.81
2022-09-06T23:53:22.007Z,100030.84
2022-09-06T23:55:49.371Z,100032.16
2022-09-06T23:58:16.829Z,100033.22
